Terminal Aerodrome Forecast
Issued by NWS Wilmington, OH

Current Version | Previous Version | Text Only | Print | Product List | Glossary Off
Versions: 1 2 3 4 5 6 7 8 9 10 11 12 13 14 15 16 17 18 19

672
FTUS41 KILN 061120
TAFILN
TAF
KILN 061120Z 0612/0712 VRB04KT P6SM SCT250
     FM061400 24009KT P6SM SCT080
     FM062300 19005KT P6SM FEW050=

USA.gov is the U.S. government's official web portal to all federal, state and local government web resources and services.